Flight Track Log - Related Links

Times and Time Zones

All times are in EDT time to prevent confusion due to time zone crossing. See the ASQ4663 flight status page for this flight to view local times or setup timezone preferences in your user account.

Time Position Orientation Groundspeed Altitude Reporting Facility
EDT Latitude Longitude Course Direction KTS MPH feet Rate Location/Type
Thu 03:54:02 PM 35.3747 -97.6122 154° Southeast 166 191 1,900  Level Fort Worth Center
Thu 03:54:44 PM 35.3394 -97.6069 173° South 169 194 3,500 1,794 Climbing Fort Worth Center
Thu 03:55:39 PM 35.2850 -97.5992 173° South 227 261 4,800 1,667 Climbing Fort Worth Center
Thu 03:56:14 PM 35.2392 -97.5914 172° South 252 290 6,000 2,013 Climbing Fort Worth Center
Thu 03:57:00 PM 35.0353 -97.4419 175° South  Level Estimated
Thu 03:58:00 PM 34.9459 -97.4024 162° South  Level Estimated
Thu 03:58:14 PM 35.1036 -97.5761 175° South 270 311 10,000  Level Fort Worth Center
Thu 03:59:00 PM 34.8564 -97.3630 154° Southeast  Level Estimated
Thu 03:59:14 PM 35.0161 -97.5631 173° South 292 336 10,700  Level Fort Worth Center
Thu 04:00:14 PM 34.9222 -97.5478 172° South 319 367 11,800 1,100 Climbing Fort Worth Center
Thu 04:01:14 PM 34.8242 -97.5197 167° South 349 402 12,900 1,050 Climbing Fort Worth Center
Thu 04:02:14 PM 34.7261 -97.4867 165° South 359 413 13,900 1,050 Climbing Fort Worth Center
Thu 04:03:14 PM 34.6281 -97.4564 166° South 359 413 15,000 1,050 Climbing Fort Worth Center
Thu 04:04:14 PM 34.5281 -97.4236 165° South 367 422 16,000 1,050 Climbing Fort Worth Center
Thu 04:05:14 PM 34.4278 -97.3883 164° South 367 422 17,100 950 Climbing Fort Worth Center
Thu 04:06:14 PM 34.3278 -97.3606 167° South 372 428 17,900 950 Climbing Fort Worth Center
Thu 04:07:14 PM 34.2275 -97.3281 165° South 372 428 19,000 1,100 Climbing Fort Worth Center
Thu 04:08:14 PM 34.1253 -97.2931 164° South 372 428 20,100 1,050 Climbing Fort Worth Center
Thu 04:09:14 PM 34.0481 -97.2381 149° Southeast 372 428 21,100 1,000 Climbing Fort Worth Center
Thu 04:10:14 PM 33.9728 -97.1481 135° Southeast 367 422 22,100 1,050 Climbing Fort Worth Center
Thu 04:11:14 PM 33.8975 -97.0531 134° Southeast 379 436 23,200 950 Climbing Fort Worth Center
Thu 04:12:14 PM 33.8094 -96.9811 146° Southeast 389 448 24,000 600 Climbing Fort Worth Center
Thu 04:13:14 PM 33.6947 -96.9617 172° South 389 448 24,400 500 Climbing Fort Worth Center
Thu 04:14:14 PM 33.5797 -96.9522 176° South 398 458 25,000 850 Climbing Fort Worth Center
Thu 04:15:14 PM 33.4669 -96.9453 177° South 411 473 26,100 1,300 Climbing Fort Worth Center
Thu 04:16:14 PM 33.3564 -96.9358 176° South 411 473 27,600 1,350 Climbing Fort Worth Center
Thu 04:17:14 PM 33.2500 -96.9292 177° South 398 458 28,800 700 Climbing Fort Worth Center
Thu 04:18:14 PM 33.1372 -96.9197 176° South 393 452 29,000 100 Climbing Fort Worth Center
Thu 04:19:14 PM 33.0056 -96.9131 178° South 418 481 29,000  Level Fort Worth Center
Thu 04:20:14 PM 32.8928 -96.9039 176° South 442 509 29,000  Level Fort Worth Center
Thu 04:21:14 PM 32.7800 -96.8847 172° South 452 520 29,000  Level Fort Worth Center
Thu 04:22:14 PM 32.6256 -96.8731 176° South 463 533 29,000  Level Fort Worth Center
Thu 04:23:15 PM 32.4961 -96.8814 183° South 463 533 29,000  Level Fort Worth Center
Thu 04:24:14 PM 32.3753 -96.9264 197° South 463 533 29,000  Level Fort Worth Center
Thu 04:25:14 PM 32.2586 -96.9686 197° South 451 519 29,000  Level Fort Worth Center
Thu 04:26:14 PM 32.1689 -97.0011 197° South 446 513 29,000  Level Fort Worth Center
Thu 04:27:14 PM 32.0414 -96.9403 158° South 392 451 29,000  Level Fort Worth Center
Thu 04:28:14 PM 31.9594 -96.8650 142° Southeast 407 468 29,000  Level Fort Worth Center
Thu 04:29:14 PM 31.8528 -96.7800 146° Southeast 412 474 29,000  Level Fort Worth Center
Thu 04:30:36 PM 31.7261 -96.6789 146° Southeast 426 490 29,000  Level Houston Center
Thu 04:31:38 PM 31.6244 -96.5969 146° Southeast 433 498 29,000  Level Houston Center
Thu 04:32:40 PM 31.5214 -96.5178 147° Southeast 434 499 29,000 -290 Level Houston Center
Thu 04:33:42 PM 31.4103 -96.4550 154° Southeast 435 501 28,400 -774 Descending Houston Center
Thu 04:34:44 PM 31.3008 -96.3853 151° Southeast 438 504 27,400 -1,306 Descending Houston Center
Thu 04:35:46 PM 31.1731 -96.3058 152° Southeast 440 506 25,700 -1,935 Descending Houston Center
Thu 04:36:48 PM 31.0664 -96.2403 152° Southeast 432 497 23,400 -2,371 Descending Houston Center
Thu 04:37:50 PM 30.9622 -96.1739 151° Southeast 426 490 20,800 -2,448 Descending Houston Center
Thu 04:38:53 PM 30.8600 -96.1139 153° Southeast 413 475 18,300 -2,304 Descending Houston Center
Thu 04:39:55 PM 30.7664 -96.0550 152° Southeast 392 451 16,000 -2,226 Descending Houston Center
Thu 04:40:57 PM 30.6725 -95.9981 152° Southeast 373 429 13,700 -2,243 Descending Houston Center
Thu 04:41:50 PM 30.5931 -95.9511 153° Southeast 337 388 11,700 -1,895 Descending Houston Center
Thu 04:42:51 PM 30.5108 -95.9000 152° Southeast 330 380 10,100 -836 Descending Houston Center
Thu 04:43:52 PM 30.4342 -95.8603 156° South 278 320 10,000 -443 Descending Houston Center
Thu 04:44:53 PM 30.3581 -95.8547 176° South 268 308 9,200 -829 Descending Houston Center
Thu 04:45:55 PM 30.2842 -95.8511 178° South 241 277 8,300 -585 Descending Houston Center
Thu 04:46:56 PM 30.2189 -95.8492 179° South 227 261 8,000 -148 Descending Houston Center
Thu 04:47:57 PM 30.1511 -95.8400 173° South 238 274 8,000  Level Houston Center
Thu 04:48:59 PM 30.1008 -95.7928 141° Southeast 228 262 8,000 -732 Level Houston Center
Thu 04:50:00 PM 30.0503 -95.7456 141° Southeast 226 260 6,500 -1,475 Descending Houston Center
Thu 04:51:01 PM 29.9997 -95.6958 140° Southeast 231 266 5,000 -1,024 Descending Houston Center
Thu 04:52:03 PM 29.9917 -95.6269 98° East 229 264 4,400 -829 Descending Houston Center
Thu 04:53:04 PM 29.9914 -95.5547 90° East 217 250 3,300 -1,024 Descending Houston Center
Thu 04:54:06 PM 29.9917 -95.4894 90° East 189 217 2,300 -968 Descending Houston Center

Login

Don't have an account? Register now (free) for customized features, flight alerts, and more!